Fair Seas — V7PD2 — position and weather

sailwx.info

Track history (hours):
 
Tides and Currents Weather Stations Pressure Air Temp Water Temp Dewpoint Dewpoint Depression Visibility Wind Speed Wind Dir Waves Ship Positions

Fair Seas

Last reported at 2015-Apr-23 07:08 UTC. Time now 2015-May-03 13:51 UTC.
Position N 13°10' E 043°03'.
Warning: this ship's position is 10 days out of date.

Length 250 m; draft 13 m.

Type: Ship (hazmat cat D). MMSI: 538003211.

Date/timePositionNaut miles runAvg speedWind from/ knotsBaromVisibWave heightAir tempDewpointWater temp
2015-Apr-23 07:08N 13°10' E 043°03'711.7
2015-Apr-23 06:32N 13°15' E 042°58'  
2015-Apr-18 22:09N 31°27' E 032°23'3 0.6
2015-Apr-18 18:13N 31°28' E 032°20'137 9.1
2015-Apr-18 03:05N 32°16' E 029°48'3413.1
2015-Apr-18 00:30N 32°24' E 029°09'2712.9
2015-Apr-17 22:25N 32°30' E 028°38'1213.0
2015-Apr-17 21:29N 32°34' E 028°25'1213.2
2015-Apr-17 20:33N 32°37' E 028°10'4013.5
2015-Apr-17 17:33N 32°47' E 027°24'60913.2
2015-Apr-15 19:22N 35°17' E 015°32'1113.5
2015-Apr-15 18:31N 35°20' E 015°18'1313.0
2015-Apr-15 17:34N 35°23' E 015°03'1312.7
2015-Apr-15 16:33N 35°26' E 014°48'1712.7
2015-Apr-15 15:12N 35°31' E 014°28'813.0
2015-Apr-15 14:33N 35°36' E 014°20'1312.8
2015-Apr-15 13:34N 35°44' E 014°07'1312.4
2015-Apr-15 12:33N 35°52' E 013°55'1312.8
2015-Apr-15 11:34N 35°58' E 013°42'1312.9
2015-Apr-15 10:34N 36°07' E 013°30'1312.7
2015-Apr-15 09:34N 36°14' E 013°17'1413.0
2015-Apr-15 08:29N 36°22' E 013°03'9212.7
2015-Apr-15 01:15N 37°14' E 011°28'912.9
2015-Apr-15 00:34N 37°19' E 011°19'2613.0
2015-Apr-14 22:32N 37°32' E 010°50'6613.0
2015-Apr-14 17:26N 37°49' E 009°29'1813.6
2015-Apr-14 16:08N 37°50' E 009°06'3413.2
2015-Apr-14 13:31N 37°47' E 008°23'13213.3
2015-Apr-14 03:31N 37°28' E 005°37'1313.2
2015-Apr-14 02:33N 37°27' E 005°21'1413.5
2015-Apr-14 01:31N 37°25' E 005°04'1313.4
2015-Apr-14 00:33N 37°23' E 004°48'1313.2
2015-Apr-13 23:33N 37°21' E 004°31'3812.6
2015-Apr-13 20:33N 37°16' E 003°44'1111.2
2015-Apr-13 19:33N 37°14' E 003°30'1211.9
2015-Apr-13 18:31N 37°12' E 003°15'1111.8
2015-Apr-13 17:33N 37°10' E 003°01'1211.8
2015-Apr-13 16:33N 37°08' E 002°46'1211.9
2015-Apr-13 15:33N 37°07' E 002°31'1211.9
2015-Apr-13 14:33N 37°05' E 002°16'1111.4
2015-Apr-13 13:33N 37°04' E 002°02'1110.7
2015-Apr-13 12:34N 37°03' E 001°49'1211.5
2015-Apr-13 11:33N 37°00' E 001°35'2612.3
2015-Apr-13 09:25N 36°56' E 001°03'1112.3
2015-Apr-13 08:31N 36°53' E 000°49'1212.3
2015-Apr-13 07:31N 36°50' E 000°34'  
Track history (hours):
 
Tides and Currents Weather Stations Pressure Air Temp Water Temp Dewpoint Dewpoint Depression Visibility Wind Speed Wind Dir Waves Ship Positions

Fair Seas

Last reported at 2015-Apr-23 07:08 UTC. Time now 2015-May-03 13:51 UTC.
Position N 13°10' E 043°03'.
Warning: this ship's position is 10 days out of date.

Length 250 m; draft 13 m.

Type: Ship (hazmat cat D). MMSI: 538003211.

Date/timePositionNaut miles runAvg speedWind from/ knotsBaromVisibWave heightAir tempDewpointWater temp
2015-Apr-23 07:08N 13°10' E 043°03'711.7
2015-Apr-23 06:32N 13°15' E 042°58'  
2015-Apr-18 22:09N 31°27' E 032°23'3 0.6
2015-Apr-18 18:13N 31°28' E 032°20'137 9.1
2015-Apr-18 03:05N 32°16' E 029°48'3413.1
2015-Apr-18 00:30N 32°24' E 029°09'2712.9
2015-Apr-17 22:25N 32°30' E 028°38'1213.0
2015-Apr-17 21:29N 32°34' E 028°25'1213.2
2015-Apr-17 20:33N 32°37' E 028°10'4013.5
2015-Apr-17 17:33N 32°47' E 027°24'60913.2
2015-Apr-15 19:22N 35°17' E 015°32'1113.5
2015-Apr-15 18:31N 35°20' E 015°18'1313.0
2015-Apr-15 17:34N 35°23' E 015°03'1312.7
2015-Apr-15 16:33N 35°26' E 014°48'1712.7
2015-Apr-15 15:12N 35°31' E 014°28'813.0
2015-Apr-15 14:33N 35°36' E 014°20'1312.8
2015-Apr-15 13:34N 35°44' E 014°07'1312.4
2015-Apr-15 12:33N 35°52' E 013°55'1312.8
2015-Apr-15 11:34N 35°58' E 013°42'1312.9
2015-Apr-15 10:34N 36°07' E 013°30'1312.7
2015-Apr-15 09:34N 36°14' E 013°17'1413.0
2015-Apr-15 08:29N 36°22' E 013°03'9212.7
2015-Apr-15 01:15N 37°14' E 011°28'912.9
2015-Apr-15 00:34N 37°19' E 011°19'2613.0
2015-Apr-14 22:32N 37°32' E 010°50'6613.0
2015-Apr-14 17:26N 37°49' E 009°29'1813.6
2015-Apr-14 16:08N 37°50' E 009°06'3413.2
2015-Apr-14 13:31N 37°47' E 008°23'13213.3
2015-Apr-14 03:31N 37°28' E 005°37'1313.2
2015-Apr-14 02:33N 37°27' E 005°21'1413.5
2015-Apr-14 01:31N 37°25' E 005°04'1313.4
2015-Apr-14 00:33N 37°23' E 004°48'1313.2
2015-Apr-13 23:33N 37°21' E 004°31'3812.6
2015-Apr-13 20:33N 37°16' E 003°44'1111.2
2015-Apr-13 19:33N 37°14' E 003°30'1211.9
2015-Apr-13 18:31N 37°12' E 003°15'1111.8
2015-Apr-13 17:33N 37°10' E 003°01'1211.8
2015-Apr-13 16:33N 37°08' E 002°46'1211.9
2015-Apr-13 15:33N 37°07' E 002°31'1211.9
2015-Apr-13 14:33N 37°05' E 002°16'1111.4
2015-Apr-13 13:33N 37°04' E 002°02'1110.7
2015-Apr-13 12:34N 37°03' E 001°49'1211.5
2015-Apr-13 11:33N 37°00' E 001°35'2612.3
2015-Apr-13 09:25N 36°56' E 001°03'1112.3
2015-Apr-13 08:31N 36°53' E 000°49'1212.3
2015-Apr-13 07:31N 36°50' E 000°34'  

Dump ship's entire track history